Impacts TAF Board
For situational awareness. Not to be used for flight planning purposes.
IDs:

KIAH - Houston/Bush Intl, TX, US

Issued at 0520 UTC 27 Sep 2020
Updated at 0739 UTC 27 Sep 2020
Potential Impact None Slight Moderate High
Time0653Z 27/08Z 27/09Z 27/10Z 27/11Z 27/12Z 27/13Z 27/14Z 27/15Z 27/16Z 27/17Z 27/18Z 27/19Z 27/20Z>>
Type OBS PRVL PRVL PRVL PRVL PRVL PRVL PRVL PRVL PRVL PRVL PRVL PRVL PRVL
VIS 10 >6 >6 6 6 6 6 6 >6 >6 >6 >6 >6 >6
CIG -- -- -- 25 25 25 25 25 -- -- -- -- -- --
Cover FEW SCT SCT BKN BKN BKN BKN BKN SCT SCT SCT SCT SCT SCT
FltCat VFR VFR VFR MVFR MVFR MVFR MVFR MVFR VFR VFR VFR VFR VFR VFR
WX -- -- -- BR BR BR BR BR -- -- -- -- -- --
WDir 170 160 160 VRB VRB VRB VRB VRB 170 170 170 170 170 180
WSpd 4 4 4 3 3 3 3 3 7 7 7 7 7 12
WGst -- -- -- -- -- -- -- -- -- -- -- -- -- --
R08/26
XWnd -4 -4 -4 VRB VRB VRB VRB VRB -7 -7 -7 -7 -7 -12
HWnd 1 1 1 VRB VRB VRB VRB VRB 1 1 1 1 1 0
R09/27
XWnd -4 -4 -4 VRB VRB VRB VRB VRB -7 -7 -7 -7 -7 -12
HWnd 1 1 1 VRB VRB VRB VRB VRB 1 1 1 1 1 0
R15/33
XWnd -1 -1 -1 VRB VRB VRB VRB VRB -2 -2 -2 -2 -2 -6
HWnd 4 4 4 VRB VRB VRB VRB VRB 7 7 7 7 7 11
Raw TAF
KIAH 270520Z 2706/2812 16004KT P6SM SCT020
  FM271000 VRB03KT 6SM BR FEW010 BKN025
  FM271500 17007KT P6SM FEW015 SCT030
  FM272000 18012KT P6SM SCT040
  FM280300 16007KT P6SM FEW020


Raw METAR
KIAH 270653Z 17004KT 10SM FEW050 23/21 A2986 RMK AO2 SLP112 T02280211 $
KIAH 270553Z 16003KT 10SM CLR 23/21 A2987 RMK AO2 SLP114 T02330211 10272 20233 403110183 50001 $
KIAH 270453Z 16003KT 10SM CLR 23/21 A2988 RMK AO2 SLP116 T02330206 $

METAR Board
Radar Display
Forecast Discussion
For situational awareness. Not to be used for flight planning purposes.